Aérodrome :
LOGIN :

S'inscrire | Disclaimer

   EN    FR    IT 

 










Légende :    VFR   VFR Marginal   IFR   IFR Intensif   IFR Très Intensif
Visi : 
Plafond : 
>= 8 km
>= 3000ft
5 à 8 km
1000 à 3000 ft
1500m à 5 km
500 à 1000 ft
800 à 1500m
200 à 500 ft
< 800m
< 200 ft
Symboles :   Orages  Brouillard  Fortes neiges  Fortes précipitations  Vent > 20 kt
SIGMETs :   Divers  Orages  Givrage  Turbulence  Onde Orograph.  Cendres Volcan.






- Altitude de l'aérodrome : 358 ft


EGTC - Cranfield

DERNIER METAR :
  • 221620Z 11011KT 9999 FEW010 08/08 Q0994

METARs EXPIRÉS :
  • 221550Z 11008KT 9999 -SHRA FEW010 08/08 Q0995
  • 221520Z 12008KT 9999 -SHRA FEW013 08/08 Q0995
  • 221450Z 13007KT 9999 SCT012 09/08 Q0995
  • 221420Z 13008KT 9999 BKN012 09/08 Q0994
  • 221350Z 13010KT 9999 SCT013 09/08 Q0994

TAF TAF EGTC
Valide du 22 à 15h jusqu'au 23 à 00h UTC


221356Z 2215/2224 14009KT 9999 SCT018
TEMPO 2215/2216 7000 SHRA BKN012
TEMPO 2216/2218 BKN014



MET'MAP, la Météo Aéronautique d'un coup d'oeil ! - Copyright ORBIFLY Décembre 2007 - Disclaimer

ORBIFLY MET'MAP TEAM :

Programmation & Développement : Alexandra Zaïnal
Conception & Développement : Baudouin d'Aumeries
Co-Programmation & Développement : Marc-Olivier Méhu
Soutien technique & logistique : Manuel Goepfert

Contact : metmap@orbifly.com




SOURCES & CREDITS :

   NOAA